Time;durP1;ratioP1;P1;durP2;ratioP2;P2;SDS_P1;SDS_P2;PMS_P1;PMS_P2;Temp;Humidity;BMP_temperature;BMP_pressure;BME280_temperature;BME280_humidity;BME280_pressure;Samples;Min_cycle;Max_cycle;Signal;HPM_P1;HPM_P2
2023/07/03 00:02:06;;;;;;;25.92;11.65;;;;;;;24.45;77.91;100047.22;4963737;28;20054;-87
2023/07/03 00:04:35;;;;;;;20.73;12.70;;;;;;;24.34;77.58;100029.56;4964941;28;20126;-84
2023/07/03 00:07:05;;;;;;;16.73;10.65;;;;;;;24.38;77.59;100046.47;4982057;28;20097;-88
2023/07/03 00:09:31;;;;;;;19.17;11.95;;;;;;;24.41;77.53;100046.00;4976646;28;20070;-87
2023/07/03 00:11:57;;;;;;;16.60;9.90;;;;;;;24.09;77.64;100014.19;4994120;28;20053;-87
2023/07/03 00:14:22;;;;;;;18.10;11.07;;;;;;;24.27;77.71;100049.97;4993745;28;20490;-86
2023/07/03 00:16:48;;;;;;;18.05;11.02;;;;;;;24.20;76.19;100033.56;4994508;28;20034;-87
2023/07/03 00:19:13;;;;;;;12.90;10.07;;;;;;;24.04;76.28;100000.28;4994104;28;20113;-87
2023/07/03 00:21:46;;;;;;;20.73;9.93;;;;;;;24.25;76.35;100049.34;4993372;28;20125;-86
2023/07/03 00:24:12;;;;;;;27.00;11.55;;;;;;;24.10;77.67;100037.84;4993178;28;20044;-87
2023/07/03 00:26:38;;;;;;;19.38;12.32;;;;;;;24.05;78.30;100030.28;4993116;28;20128;-87
2023/07/03 00:29:04;;;;;;;22.60;12.27;;;;;;;24.18;78.94;100045.84;4993129;28;20479;-91
2023/07/03 00:31:30;;;;;;;21.70;11.93;;;;;;;24.09;79.04;100022.44;4992128;28;20045;-87
2023/07/03 00:33:56;;;;;;;27.65;12.95;;;;;;;24.15;78.71;100027.06;4992370;28;20037;-85
2023/07/03 00:36:22;;;;;;;21.20;11.90;;;;;;;24.24;78.91;100044.94;4975925;28;20076;-89
2023/07/03 00:38:47;;;;;;;24.77;12.45;;;;;;;24.12;79.34;100035.75;5012239;28;20100;-86
2023/07/03 00:41:13;;;;;;;22.45;13.40;;;;;;;24.36;79.08;100057.69;5011636;28;20037;-90
2023/07/03 00:43:42;;;;;;;20.23;11.75;;;;;;;24.30;79.24;100060.50;5011609;28;20042;-86
2023/07/03 00:46:09;;;;;;;23.58;12.52;;;;;;;24.17;78.98;100024.91;5011627;28;20042;-87
2023/07/03 00:48:35;;;;;;;19.85;12.68;;;;;;;24.27;79.15;100038.97;4969852;28;20613;-87
2023/07/03 00:51:01;;;;;;;25.90;12.68;;;;;;;24.26;79.15;100042.78;4969292;28;20035;-86
2023/07/03 00:53:27;;;;;;;14.75;11.77;;;;;;;24.35;78.72;100052.41;4969981;28;20041;-88
2023/07/03 00:55:52;;;;;;;20.20;12.10;;;;;;;24.25;78.37;100030.09;4970321;28;20038;-86
2023/07/03 00:58:18;;;;;;;23.83;12.02;;;;;;;24.25;77.83;100032.84;4969986;28;20070;-87
2023/07/03 01:01:01;;;;;;;25.60;13.23;;;;;;;24.27;77.39;100036.22;4970201;28;20043;-86
2023/07/03 01:03:35;;;;;;;32.63;19.40;;;;;;;24.31;77.20;100046.53;4970105;28;20045;-86
2023/07/03 01:06:03;;;;;;;57.80;34.05;;;;;;;24.23;77.02;100026.75;4970058;28;20117;-87
2023/07/03 01:08:29;;;;;;;91.45;39.30;;;;;;;;;;4968968;28;20051;-87
2023/07/03 01:10:55;;;;;;;77.80;45.08;;;;;;;24.37;76.72;100037.38;4968881;28;20097;-89
2023/07/03 01:13:23;;;;;;;97.97;54.65;;;;;;;24.34;76.99;100029.56;4969370;28;20125;-88
2023/07/03 01:15:49;;;;;;;112.88;63.10;;;;;;;24.25;77.11;100013.63;4969872;28;20034;-87
2023/07/03 01:18:15;;;;;;;114.63;64.68;;;;;;;24.36;76.64;100026.63;4969833;28;20070;-87
2023/07/03 01:20:48;;;;;;;127.68;68.80;;;;;;;24.35;76.79;100025.78;4991338;28;20045;-88
2023/07/03 01:23:19;;;;;;;107.80;64.82;;;;;;;24.49;76.77;100042.13;5010480;28;20094;-87
2023/07/03 01:25:47;;;;;;;117.00;67.93;;;;;;;24.42;76.70;100035.84;5011604;28;20194;-87
2023/07/03 01:28:16;;;;;;;92.85;57.78;;;;;;;24.29;76.72;100034.09;5011086;28;20034;-87
2023/07/03 01:30:43;;;;;;;96.88;53.55;;;;;;;24.22;76.94;100017.66;5011509;28;20040;-87
2023/07/03 01:33:17;;;;;;;82.53;50.78;;;;;;;24.34;76.69;100039.75;5010389;28;20103;-87
2023/07/03 01:35:46;;;;;;;82.43;44.70;;;;;;;24.38;76.79;100054.69;4993065;28;20088;-86
2023/07/03 01:38:12;;;;;;;84.30;46.40;;;;;;;24.41;76.82;100047.91;5010715;28;20046;-86
2023/07/03 01:40:38;;;;;;;76.10;46.83;;;;;;;24.47;76.62;100056.09;5010913;28;20037;-87
2023/07/03 01:43:05;;;;;;;82.38;46.28;;;;;;;24.51;76.79;100051.81;5010225;28;20103;-88
2023/07/03 01:45:34;;;;;;;76.40;42.20;;;;;;;24.47;76.56;100055.25;4993064;28;20045;-88
2023/07/03 01:47:59;;;;;;;75.03;41.53;;;;;;;24.52;76.51;100063.66;5011469;28;20038;-89
2023/07/03 01:50:28;;;;;;;67.57;37.83;;;;;;;24.48;76.43;100055.03;4992967;28;20041;-88
2023/07/03 01:53:02;;;;;;;55.38;32.00;;;;;;;24.53;76.29;100066.16;5010040;28;20106;-86
2023/07/03 01:55:42;;;;;;;57.28;32.28;;;;;;;24.43;76.47;100074.13;5009871;28;20112;-87
2023/07/03 01:58:18;;;;;;;49.03;30.08;;;;;;;24.46;76.54;100075.56;5010150;28;20042;-86
2023/07/03 02:00:50;;;;;;;55.33;29.33;;;;;;;24.47;76.19;100072.56;5009887;28;20045;-87
2023/07/03 02:03:30;;;;;;;52.75;26.60;;;;;;;24.31;76.32;100059.47;5010011;28;20068;-87
2023/07/03 02:05:58;;;;;;;45.70;27.33;;;;;;;24.27;76.56;100070.06;5011213;28;20033;-88
2023/07/03 02:08:25;;;;;;;38.13;24.98;;;;;;;24.22;76.36;100055.28;4993926;28;20045;-89
2023/07/03 02:10:53;;;;;;;50.95;25.35;;;;;;;24.25;76.48;100068.59;4995546;28;20060;-88
2023/07/03 02:13:18;;;;;;;36.17;23.77;;;;;;;24.16;76.09;100067.19;5003592;28;20058;-87
2023/07/03 02:15:43;;;;;;;41.45;23.00;;;;;;;24.10;76.30;100068.91;5012375;28;20126;-88
2023/07/03 02:18:13;;;;;;;50.28;23.40;;;;;;;24.13;76.47;100084.13;5010830;28;20100;-87
2023/07/03 02:20:38;;;;;;;37.95;23.15;;;;;;;24.09;76.59;100080.16;5010949;28;20041;-89
2023/07/03 02:23:04;;;;;;;52.05;24.17;;;;;;;24.01;76.98;100063.94;5011151;28;20089;-88
2023/07/03 02:25:31;;;;;;;39.90;23.63;;;;;;;24.06;77.01;100078.69;5010788;28;20042;-86
2023/07/03 02:27:56;;;;;;;44.58;24.15;;;;;;;24.09;76.97;100089.22;5011494;28;20042;-87
2023/07/03 02:30:22;;;;;;;51.58;26.30;;;;;;;24.03;77.28;100081.91;5011985;28;20052;-86
2023/07/03 02:32:47;;;;;;;47.55;27.30;;;;;;;23.94;77.46;100065.91;5011962;28;20093;-87
2023/07/03 02:35:13;;;;;;;55.42;27.08;;;;;;;23.93;77.65;100076.06;5016948;28;20038;-86
2023/07/03 02:37:38;;;;;;;58.95;27.77;;;;;;;24.07;77.56;100087.75;5023432;28;20049;-84
2023/07/03 02:40:08;;;;;;;55.28;30.15;;;;;;;23.94;77.54;100082.41;5015347;28;20386;-85
2023/07/03 02:42:34;;;;;;;43.97;26.98;;;;;;;23.99;77.67;100090.78;5014303;28;20077;-86
2023/07/03 02:44:59;;;;;;;38.53;23.80;;;;;;;23.89;77.53;100083.06;5012772;28;20076;-90
2023/07/03 02:47:25;;;;;;;43.22;21.80;;;;;;;23.96;77.60;100091.25;5016639;28;20048;-84
2023/07/03 02:49:51;;;;;;;47.40;19.85;;;;;;;23.98;76.96;100078.97;5036353;28;20136;-93
2023/07/03 02:52:16;;;;;;;38.40;17.50;;;;;;;23.95;76.67;100078.56;5036623;28;20049;-88
2023/07/03 02:54:42;;;;;;;35.17;15.70;;;;;;;24.08;76.26;100101.28;5032823;28;20030;-86
2023/07/03 02:57:07;;;;;;;36.65;16.30;;;;;;;24.03;75.99;100087.38;5025698;28;20505;-89
2023/07/03 02:59:33;;;;;;;27.42;14.82;;;;;;;24.01;75.51;100084.00;5037164;28;20037;-86
2023/07/03 03:01:58;;;;;;;27.48;14.65;;;;;;;24.09;74.94;100093.88;5022767;28;20120;-85
2023/07/03 03:04:24;;;;;;;31.40;15.75;;;;;;;24.06;74.96;100083.34;5014144;28;20521;-89
2023/07/03 03:06:50;;;;;;;31.70;16.23;;;;;;;24.15;74.98;100096.59;5013191;28;20038;-90
2023/07/03 03:09:15;;;;;;;34.58;16.85;;;;;;;24.21;74.73;100103.94;4995229;28;20068;-88
2023/07/03 03:11:41;;;;;;;33.80;17.02;;;;;;;24.10;74.37;100081.81;5013404;28;20092;-89
2023/07/03 03:14:06;;;;;;;27.42;17.02;;;;;;;24.28;74.39;100110.19;5012854;28;20030;-89
2023/07/03 03:16:31;;;;;;;32.33;17.65;;;;;;;24.23;74.24;100100.97;4995410;28;20038;-88
2023/07/03 03:18:57;;;;;;;30.40;16.70;;;;;;;24.18;74.22;100089.81;5013218;28;20121;-86
2023/07/03 03:21:22;;;;;;;32.75;15.65;;;;;;;24.02;74.13;100068.38;5012840;28;20038;-86
2023/07/03 03:23:48;;;;;;;26.27;16.48;;;;;;;24.27;73.87;100103.03;5012776;28;20042;-87
2023/07/03 03:26:13;;;;;;;35.75;16.70;;;;;;;24.34;73.56;100108.47;5012836;28;20034;-88
2023/07/03 03:28:39;;;;;;;21.73;15.13;;;;;;;24.41;73.40;100116.63;5014659;28;20030;-89
2023/07/03 03:31:04;;;;;;;30.15;17.27;;;;;;;24.38;72.96;100106.94;4996279;28;20061;-87
2023/07/03 03:33:30;;;;;;;26.02;16.27;;;;;;;24.44;72.86;100108.78;5013330;28;20033;-89
2023/07/03 03:35:55;;;;;;;31.33;18.20;;;;;;;24.33;73.19;100098.53;4994685;28;20030;-88
2023/07/03 03:38:21;;;;;;;29.25;16.00;;;;;;;24.49;72.73;100113.59;5012819;28;20042;-87
2023/07/03 03:40:57;;;;;;;24.63;15.85;;;;;;;24.51;72.57;100123.31;5012373;28;20065;-85
2023/07/03 03:43:22;;;;;;;31.70;16.58;;;;;;;24.48;72.64;100107.25;5013511;28;20044;-85
2023/07/03 03:46:01;;;;;;;32.53;17.60;;;;;;;24.61;72.15;100123.63;5011354;28;20034;-86
2023/07/03 03:48:29;;;;;;;33.33;15.60;;;;;;;24.67;72.05;100121.88;5013705;28;20042;-89
2023/07/03 03:50:55;;;;;;;37.35;15.32;;;;;;;24.58;72.15;100106.75;5011899;28;20121;-85
2023/07/03 03:53:21;;;;;;;40.25;18.77;;;;;;;24.56;72.13;100109.69;5011051;28;20084;-84
2023/07/03 03:55:51;;;;;;;36.72;15.63;;;;;;;24.59;72.03;100108.41;5011638;28;20041;-86
2023/07/03 03:58:17;;;;;;;35.05;15.85;;;;;;;24.70;71.63;100114.00;5013276;28;20140;-86
2023/07/03 04:00:44;;;;;;;55.03;17.58;;;;;;;24.55;71.73;100094.28;5013051;28;20030;-90
2023/07/03 04:03:10;;;;;;;55.15;17.60;;;;;;;24.70;71.47;100099.41;5015046;28;20045;-87
2023/07/03 04:05:36;;;;;;;28.73;15.63;;;;;;;24.64;71.27;100081.06;5012743;28;20034;-88
2023/07/03 04:08:02;;;;;;;21.05;15.65;;;;;;;24.81;70.86;100096.75;4994453;28;20406;-88
2023/07/03 04:10:27;;;;;;;26.85;15.57;;;;;;;24.73;70.59;100093.44;5011839;28;20034;-86
2023/07/03 04:12:53;;;;;;;31.63;16.75;;;;;;;24.67;70.53;100089.72;4990112;28;20042;-87
2023/07/03 04:15:18;;;;;;;26.27;16.13;;;;;;;24.72;70.81;100109.09;4988876;28;20165;-88
2023/07/03 04:17:43;;;;;;;22.90;16.33;;;;;;;24.75;70.84;100116.06;4989862;28;20042;-88
2023/07/03 04:20:15;;;;;;;34.60;15.70;;;;;;;24.74;71.03;100117.97;4973938;28;20044;-87
2023/07/03 04:22:42;;;;;;;34.20;16.30;;;;;;;24.72;71.07;100113.75;4989393;28;20121;-86
2023/07/03 04:25:08;;;;;;;28.50;16.95;;;;;;;24.81;70.81;100118.75;4989825;28;20081;-86
2023/07/03 04:27:34;;;;;;;21.38;15.07;;;;;;;24.80;70.44;100121.69;4973248;28;20461;-88
2023/07/03 04:30:00;;;;;;;30.10;15.45;;;;;;;24.71;70.52;100101.91;4974859;28;20066;-87
2023/07/03 04:32:26;;;;;;;28.08;15.40;;;;;;;24.81;70.30;100121.50;4990224;28;20077;-88
2023/07/03 04:34:51;;;;;;;28.10;15.77;;;;;;;24.84;70.32;100129.31;4989208;28;20035;-87
2023/07/03 04:37:17;;;;;;;36.28;16.42;;;;;;;24.89;70.25;100143.19;4990316;28;20073;-89
2023/07/03 04:39:43;;;;;;;36.55;15.77;;;;;;;24.85;70.08;100131.00;4973936;28;20748;-89
2023/07/03 04:42:13;;;;;;;24.63;16.05;;;;;;;24.93;69.98;100149.09;4989621;28;20065;-82
2023/07/03 04:44:39;;;;;;;27.60;17.05;;;;;;;24.83;69.99;100135.88;5009080;28;20517;-84
2023/07/03 04:47:05;;;;;;;29.65;16.77;;;;;;;24.94;69.92;100152.69;5018742;28;20030;-85
2023/07/03 04:49:34;;;;;;;32.72;15.93;;;;;;;24.93;69.93;100146.34;5012532;28;20036;-83
2023/07/03 04:52:00;;;;;;;45.65;15.38;;;;;;;24.99;69.79;100158.34;5012029;28;20120;-88
2023/07/03 04:54:27;;;;;;;29.27;15.75;;;;;;;24.94;70.17;100144.44;5012678;28;20165;-88
2023/07/03 04:56:54;;;;;;;27.95;15.13;;;;;;;25.02;70.03;100155.13;4998696;28;20122;-91
2023/07/03 04:59:20;;;;;;;74.60;19.85;;;;;;;25.00;69.59;100132.50;4973121;28;20137;-91
2023/07/03 05:01:46;;;;;;;42.25;15.73;;;;;;;25.03;68.75;100132.03;4975577;28;20090;-92
2023/07/03 05:04:12;;;;;;;28.77;15.65;;;;;;;25.24;68.56;100157.19;4976824;28;20047;-90
2023/07/03 05:06:38;;;;;;;55.05;16.80;;;;;;;25.15;68.24;100121.94;4976066;28;20046;-91
2023/07/03 05:09:05;;;;;;;53.00;17.85;;;;;;;25.34;68.02;100142.88;4977656;28;20039;-89
2023/07/03 05:11:32;;;;;;;34.17;15.05;;;;;;;25.38;67.47;100130.31;4978616;28;20519;-90
2023/07/03 05:14:01;;;;;;;38.08;16.00;;;;;;;25.66;67.09;100171.88;4980640;28;20038;-90
2023/07/03 05:16:27;;;;;;;39.25;15.10;;;;;;;25.50;66.56;100145.00;4980526;28;20074;-91
2023/07/03 05:18:53;;;;;;;37.80;15.63;;;;;;;25.69;65.86;100165.91;4979116;28;20106;-90
2023/07/03 05:21:19;;;;;;;134.50;24.42;;;;;;;25.70;65.67;100142.78;4979874;28;20077;-92
2023/07/03 05:23:44;;;;;;;33.58;15.80;;;;;;;25.93;64.63;100175.09;4980991;28;20126;-90
2023/07/03 05:26:10;;;;;;;36.25;15.93;;;;;;;25.83;64.46;100153.63;4964834;28;20067;-90
2023/07/03 05:28:37;;;;;;;52.13;15.35;;;;;;;25.89;63.77;100166.47;4979838;28;20042;-91
2023/07/03 05:31:02;;;;;;;40.28;15.40;;;;;;;25.85;63.64;100148.72;4980764;28;20074;-91
2023/07/03 05:33:29;;;;;;;28.35;13.57;;;;;;;26.16;63.22;100177.09;4985077;28;20050;-90
2023/07/03 05:36:04;;;;;;;29.50;14.57;;;;;;;25.98;63.04;100137.47;4984876;28;20058;-90
2023/07/03 05:38:30;;;;;;;26.73;13.65;;;;;;;26.33;62.25;100178.91;5003149;28;20081;-91
2023/07/03 05:40:55;;;;;;;29.73;14.77;;;;;;;26.16;62.46;100144.00;5003120;28;20058;-93
2023/07/03 05:43:21;;;;;;;27.17;12.93;;;;;;;26.30;61.18;100135.25;5005421;28;20049;-91
2023/07/03 05:45:48;;;;;;;23.90;16.20;;;;;;;26.48;60.99;100150.88;4988174;28;20106;-91
2023/07/03 05:48:14;;;;;;;24.45;13.55;;;;;;;26.61;60.28;100147.00;5006527;28;20046;-91
2023/07/03 05:50:42;;;;;;;32.53;13.15;;;;;;;26.72;59.07;100137.91;5002189;28;20486;-93
2023/07/03 05:53:09;;;;;;;15.85;12.75;;;;;;;26.78;58.77;100147.97;4985997;28;20067;-93
2023/07/03 06:05:45;;;;;;;21.10;13.02;;;;;;;27.21;57.82;100170.47;5001723;28;20045;-91
2023/07/03 06:08:11;;;;;;;27.77;15.52;;;;;;;27.33;59.04;100179.56;4982610;28;20115;-89
2023/07/03 06:10:38;;;;;;;32.03;16.38;;;;;;;27.54;59.39;100197.41;4989249;28;20551;-90
2023/07/03 06:13:04;;;;;;;53.95;16.30;;;;;;;27.58;59.40;100190.31;5019702;28;20049;-94
2023/07/03 06:15:30;;;;;;;41.17;15.07;;;;;;;27.79;58.72;100206.22;5001681;28;20049;-93
2023/07/03 06:17:57;;;;;;;36.13;16.48;;;;;;;27.92;58.62;100202.31;5001488;28;20154;-93
2023/07/03 06:20:23;;;;;;;29.10;14.48;;;;;;;27.93;58.31;100185.47;5002040;28;20050;-96
2023/07/03 06:22:48;;;;;;;28.20;14.48;;;;;;;27.82;58.07;100161.50;5021184;28;20090;-90
2023/07/03 06:25:14;;;;;;;29.38;15.23;;;;;;;28.18;57.55;100204.47;5021451;28;20022;-92
2023/07/03 06:27:40;;;;;;;28.17;13.43;;;;;;;27.94;57.06;100159.50;5020733;28;20022;-93
2023/07/03 06:30:06;;;;;;;26.48;14.32;;;;;;;28.29;56.72;100205.47;5002139;28;20101;-94
2023/07/03 06:32:32;;;;;;;25.02;14.95;;;;;;;28.28;56.83;100195.50;5019113;28;20061;-96
2023/07/03 06:34:58;;;;;;;28.50;15.30;;;;;;;28.28;57.42;100192.75;5003743;28;20046;-92
2023/07/03 06:37:26;;;;;;;32.85;17.08;;;;;;;28.37;57.22;100181.00;5022915;28;20057;-92
2023/07/03 06:39:52;;;;;;;34.15;14.95;;;;;;;28.63;57.41;100196.06;5012530;28;20030;-92
2023/07/03 06:42:20;;;;;;;34.22;15.95;;;;;;;28.55;56.94;100177.13;5036876;28;20061;-91
2023/07/03 06:44:57;;;;;;;29.25;16.23;;;;;;;28.52;56.71;100163.81;5040478;28;20053;-93
2023/07/03 06:47:25;;;;;;;39.08;15.48;;;;;;;28.66;56.45;100183.69;5022442;28;20045;-91
2023/07/03 06:49:53;;;;;;;28.77;14.68;;;;;;;28.46;56.53;100162.88;5021247;28;20046;-93
2023/07/03 06:52:19;;;;;;;22.55;13.90;;;;;;;28.57;56.19;100177.72;5038616;28;20045;-96
2023/07/03 06:54:47;;;;;;;21.73;14.50;;;;;;;28.55;56.24;100177.13;5037198;28;20052;-92
2023/07/03 06:57:12;;;;;;;25.65;14.82;;;;;;;28.75;56.37;100201.53;5018101;28;20042;-96
2023/07/03 06:59:38;;;;;;;39.55;15.93;;;;;;;28.64;55.89;100183.91;5038013;28;20034;-96
2023/07/03 07:02:09;;;;;;;29.58;15.15;;;;;;;28.68;55.90;100179.59;5040017;28;20061;-92
2023/07/03 07:04:35;;;;;;;25.70;14.27;;;;;;;28.71;55.50;100201.22;5022041;28;20125;-92
2023/07/03 07:07:03;;;;;;;32.67;14.95;;;;;;;28.96;55.56;100228.47;5022200;28;20053;-91
2023/07/03 07:09:28;;;;;;;31.73;14.20;;;;;;;28.82;55.25;100194.75;5039300;28;20045;-91
2023/07/03 07:11:54;;;;;;;26.45;14.40;;;;;;;28.87;55.19;100208.66;5019879;28;20045;-92
2023/07/03 07:14:22;;;;;;;23.08;14.40;;;;;;;28.95;54.89;100211.00;5004567;28;20046;-92
2023/07/03 07:16:48;;;;;;;23.27;14.55;;;;;;;29.02;54.94;100219.13;5022634;28;20046;-92
2023/07/03 07:19:18;;;;;;;44.28;19.30;;;;;;;29.19;54.98;100231.00;5010360;28;20037;-89
2023/07/03 07:21:44;;;;;;;104.88;21.02;;;;;;;29.14;53.79;100228.16;5026810;28;20034;-93
2023/07/03 07:24:22;;;;;;;71.95;16.70;;;;;;;29.28;52.08;100248.88;5006531;28;20050;-91
2023/07/03 07:26:54;;;;;;;47.10;16.10;;;;;;;29.29;53.57;100225.63;5021823;28;20046;-91
2023/07/03 07:29:25;;;;;;;42.47;21.17;;;;;;;29.21;53.91;100226.03;5016730;28;20050;-91
2023/07/03 07:31:53;;;;;;;25.30;14.40;;;;;;;29.00;54.64;100226.84;5039332;28;20079;-92
2023/07/03 07:38:33;;;;;;;38.80;14.73;;;;;;;28.65;57.70;100288.03;5037901;28;20077;-92
2023/07/03 07:41:04;;;;;;;43.92;16.10;;;;;;;28.32;57.92;100243.69;5002582;28;20301;-93
2023/07/03 07:43:35;;;;;;;31.15;13.77;;;;;;;28.28;58.93;100256.34;5013072;28;20424;-90
2023/07/03 07:46:00;;;;;;;30.75;14.50;;;;;;;28.36;59.88;100280.84;4988566;28;20104;-93
2023/07/03 07:48:27;;;;;;;41.88;15.05;;;;;;;28.16;60.34;100253.66;4988696;28;20475;-91
2023/07/03 07:50:52;;;;;;;44.63;16.35;;;;;;;28.28;61.03;100267.41;4999294;28;20038;-91
2023/07/03 07:53:18;;;;;;;35.17;14.00;;;;;;;28.06;61.43;100248.78;4999055;28;20169;-90
2023/07/03 07:59:06;;;;;;;41.60;15.52;;;;;;;27.93;62.28;100278.59;5000198;28;20034;-89
2023/07/03 08:01:31;;;;;;;39.03;16.85;;;;;;;27.97;62.38;100291.72;4998956;28;20031;-88
2023/07/03 08:03:56;;;;;;;49.08;19.38;;;;;;;27.81;63.94;100286.94;4996144;28;20050;-87
2023/07/03 08:06:27;;;;;;;74.47;16.38;;;;;;;27.84;64.39;100314.09;4980961;28;20475;-92
2023/07/03 08:08:55;;;;;;;47.03;15.65;;;;;;;27.60;64.97;100284.84;4998919;28;20030;-90
2023/07/03 08:11:21;;;;;;;36.58;14.90;;;;;;;27.58;64.72;100303.59;4998854;28;20089;-91
2023/07/03 08:13:49;;;;;;;27.88;12.60;;;;;;;27.52;63.94;100277.78;4979160;28;20034;-91
2023/07/03 08:22:59;;;;;;;27.23;11.73;;;;;;;27.52;63.96;100265.91;4997819;28;20045;-90
2023/07/03 08:25:25;;;;;;;26.40;12.27;;;;;;;27.74;64.02;100286.25;4997401;28;20096;-90
2023/07/03 08:27:50;;;;;;;30.08;14.52;;;;;;;27.87;64.06;100272.16;4996270;28;20034;-91
2023/07/03 08:30:16;;;;;;;25.90;13.02;;;;;;;27.98;62.90;100274.00;4979328;28;20371;-92
2023/07/03 08:32:51;;;;;;;19.10;11.60;;;;;;;27.97;62.26;100264.06;4979675;28;20499;-92
2023/07/03 08:35:17;;;;;;;28.83;12.32;;;;;;;28.00;61.57;100269.09;4980663;28;20049;-93
2023/07/03 08:37:44;;;;;;;62.45;15.93;;;;;;;28.31;61.39;100266.94;4999588;28;20035;-92
2023/07/03 08:40:15;;;;;;;27.42;12.88;;;;;;;28.45;61.91;100276.56;4991514;28;20129;-92
2023/07/03 08:42:47;;;;;;;27.37;12.33;;;;;;;28.42;62.44;100268.78;4996628;28;20053;-91
2023/07/03 08:48:29;;;;;;;60.28;14.75;;;;;;;28.75;62.05;100267.97;4999411;28;19916;-91
2023/07/03 08:50:59;;;;;;;40.70;15.88;;;;;;;29.05;60.67;100308.06;4997629;28;20045;-93
2023/07/03 08:53:34;;;;;;;46.70;15.52;;;;;;;28.91;60.32;100269.88;4997685;28;20069;-92
2023/07/03 08:56:13;;;;;;;68.85;19.42;;;;;;;28.71;60.78;100264.88;4996191;28;20136;-91
2023/07/03 08:59:01;;;;;;;24.48;13.27;;;;;;;29.05;60.01;100310.00;4980038;28;20038;-91
2023/07/03 09:01:32;;;;;;;56.65;15.57;;;;;;;29.13;59.97;100307.66;4995633;28;20034;-92
2023/07/03 09:04:24;;;;;;;31.80;13.70;;;;;;;29.33;58.61;100309.03;4994854;28;20085;-91
2023/07/03 09:06:57;;;;;;;23.63;12.65;;;;;;;29.42;58.09;100313.06;4994267;28;20257;-91
2023/07/03 09:09:32;;;;;;;49.60;16.95;;;;;;;29.48;57.81;100287.94;4977542;28;20133;-90
2023/07/03 09:12:28;;;;;;;26.40;13.45;;;;;;;29.69;57.17;100314.00;4992266;28;20042;-90
2023/07/03 09:15:06;;;;;;;29.95;12.77;;;;;;;29.93;56.40;100312.69;4992208;28;20046;-91
2023/07/03 09:17:34;;;;;;;21.35;12.23;;;;;;;29.65;55.85;100260.16;4993047;28;20124;-92
2023/07/03 09:20:01;;;;;;;30.40;13.07;;;;;;;29.73;56.36;100284.66;4994251;28;20030;-90
2023/07/03 09:22:50;;;;;;;20.38;11.32;;;;;;;29.68;55.81;100256.88;4997999;28;20038;-90
2023/07/03 09:25:47;;;;;;;31.23;14.05;;;;;;;29.69;55.96;100259.38;4946067;29;20079;-88
2023/07/03 09:28:13;;;;;;;21.35;12.13;;;;;;;30.17;54.60;100291.88;4889691;29;20409;-92
2023/07/03 09:30:39;;;;;;;22.15;12.13;;;;;;;30.19;54.06;100249.97;4863234;29;20041;-93
2023/07/03 09:33:10;;;;;;;26.70;12.52;;;;;;;30.71;53.32;100252.97;4865643;29;20530;-92
2023/07/03 09:35:41;;;;;;;27.83;12.93;;;;;;;30.83;52.09;100245.28;4866387;29;20042;-92
2023/07/03 09:45:18;;;;;;;18.38;10.80;;;;;;;31.24;49.50;100266.72;4876077;29;20064;-91
2023/07/03 09:47:55;;;;;;;25.00;11.48;;;;;;;31.32;48.54;100258.94;4879635;29;20048;-91
2023/07/03 09:50:28;;;;;;;16.42;10.52;;;;;;;30.88;51.20;100248.13;4878556;29;20037;-90
2023/07/03 09:52:56;;;;;;;23.17;11.20;;;;;;;30.55;52.50;100242.88;4879084;29;20055;-90
2023/07/03 09:55:25;;;;;;;18.42;11.18;;;;;;;30.66;52.32;100287.09;4888560;29;20096;-90
2023/07/03 09:57:50;;;;;;;19.17;10.48;;;;;;;30.13;54.25;100257.41;4923394;29;20044;-91
2023/07/03 10:00:20;;;;;;;30.48;12.18;;;;;;;29.99;54.62;100256.16;4916113;29;20241;-90
2023/07/03 10:02:54;;;;;;;23.27;11.05;;;;;;;30.07;54.79;100264.00;4936202;29;20146;-92
2023/07/03 10:05:30;;;;;;;21.38;11.00;;;;;;;30.46;54.33;100311.03;4970551;28;20129;-88
2023/07/03 10:08:00;;;;;;;17.05;11.05;;;;;;;30.20;55.03;100291.34;4989817;28;20042;-86
2023/07/03 10:10:28;;;;;;;23.70;10.57;;;;;;;30.13;55.89;100301.81;4989481;28;20400;-84
2023/07/03 10:13:24;;;;;;;26.13;12.60;;;;;;;30.10;56.55;100323.69;4990443;28;21734;-84
2023/07/03 10:15:51;;;;;;;19.63;11.50;;;;;;;29.84;55.58;100317.00;4991377;28;20053;-88
2023/07/03 10:18:31;;;;;;;16.88;11.63;;;;;;;29.54;55.64;100303.53;4991095;28;20057;-87
2023/07/03 10:20:58;;;;;;;20.48;12.27;;;;;;;29.60;55.84;100301.69;4979684;28;20034;-86
2023/07/03 10:23:28;;;;;;;25.33;12.77;;;;;;;29.57;56.67;100305.78;4988546;28;20197;-88
2023/07/03 10:26:05;;;;;;;35.28;13.63;;;;;;;29.78;57.08;100304.13;4969978;28;20039;-91
2023/07/03 10:28:51;;;;;;;21.45;11.68;;;;;;;29.66;56.76;100278.47;4959030;28;20481;-90
2023/07/03 10:31:43;;;;;;;26.27;12.68;;;;;;;29.89;56.67;100305.13;4989155;28;20042;-84
2023/07/03 10:34:16;;;;;;;18.92;12.25;;;;;;;29.89;56.66;100305.97;4969017;28;20734;-86
2023/07/03 10:36:46;;;;;;;22.35;12.32;;;;;;;29.65;56.19;100299.81;4986325;28;20096;-86
2023/07/03 10:39:20;;;;;;;19.38;11.60;;;;;;;29.68;55.84;100292.91;4986231;28;20055;-81
2023/07/03 10:41:50;;;;;;;26.27;11.35;;;;;;;29.30;56.50;100284.63;4976095;28;20333;-89
2023/07/03 10:44:20;;;;;;;18.23;10.02;;;;;;;29.15;54.53;100288.81;4986649;28;20762;-79
2023/07/03 10:47:04;;;;;;;24.75;10.95;;;;;;;29.47;53.96;100310.38;4989026;28;20073;-81
2023/07/03 10:49:32;;;;;;;49.25;15.75;;;;;;;29.37;54.56;100307.44;4985794;28;20565;-83
2023/07/03 10:52:17;;;;;;;20.98;10.02;;;;;;;29.20;54.61;100318.56;4969211;28;20035;-85
2023/07/03 10:54:54;;;;;;;28.30;13.07;;;;;;;29.38;54.29;100309.97;4953673;28;20419;-82
2023/07/03 10:57:29;;;;;;;29.75;10.45;;;;;;;29.60;52.51;100335.78;4986322;28;20445;-81
2023/07/03 10:59:58;;;;;;;22.73;10.48;;;;;;;29.58;52.24;100314.94;4987704;28;20553;-83
2023/07/03 11:02:41;;;;;;;11.95;8.65;;;;;;;29.29;50.31;100305.13;4989381;28;20084;-88
2023/07/03 11:05:07;;;;;;;25.73;10.68;;;;;;;29.16;51.56;100296.06;4975646;28;20052;-88
2023/07/03 11:07:37;;;;;;;30.65;11.77;;;;;;;29.42;52.00;100307.50;4990956;28;20039;-82
2023/07/03 11:10:27;;;;;;;18.20;11.40;;;;;;;29.35;51.53;100304.94;4972091;28;20475;-89
2023/07/03 11:12:57;;;;;;;19.42;11.25;;;;;;;29.52;51.59;100299.34;4969180;28;20039;-82
2023/07/03 11:15:48;;;;;;;36.50;12.68;;;;;;;29.66;51.43;100284.03;4987618;28;20076;-86
2023/07/03 11:18:28;;;;;;;13.15;10.60;;;;;;;29.76;51.63;100288.84;4992835;28;20433;-88
2023/07/03 11:21:30;;;;;;;20.00;10.63;;;;;;;29.92;50.98;100277.72;4992192;28;20041;-81
2023/07/03 11:24:01;;;;;;;18.40;10.80;;;;;;;30.07;51.20;100294.53;4930573;29;20118;-84
2023/07/03 11:27:13;;;;;;;20.92;10.82;;;;;;;30.27;50.04;100293.91;4930394;29;20134;-83
2023/07/03 11:29:40;;;;;;;15.88;10.15;;;;;;;30.05;48.97;100277.31;4895155;29;20036;-83
2023/07/03 11:32:08;;;;;;;22.35;10.25;;;;;;;30.36;49.53;100302.59;4892771;29;20037;-82
2023/07/03 11:34:35;;;;;;;18.30;11.02;;;;;;;29.90;50.50;100281.84;4896956;29;20209;-80
2023/07/03 11:37:01;;;;;;;81.25;16.73;;;;;;;30.16;51.38;100295.72;4893223;29;20052;-81
2023/07/03 11:39:33;;;;;;;29.20;12.30;;;;;;;30.36;50.71;100305.38;4894491;29;20052;-86
2023/07/03 11:42:01;;;;;;;15.52;10.48;;;;;;;30.35;49.61;100304.53;4906490;29;20040;-82
2023/07/03 11:44:37;;;;;;;26.35;11.30;;;;;;;30.49;49.33;100294.69;4893077;29;20065;-85
2023/07/03 11:47:28;;;;;;;20.63;11.13;;;;;;;30.48;49.29;100304.16;4874740;29;20060;-84
2023/07/03 11:49:59;;;;;;;27.40;9.88;;;;;;;30.58;49.88;100314.50;4807471;29;20500;-87
2023/07/03 11:52:33;;;;;;;22.90;10.80;;;;;;;30.69;49.42;100296.84;4822659;29;20038;-86
2023/07/03 11:55:04;;;;;;;25.17;10.60;;;;;;;30.71;49.58;100294.63;4820913;29;20047;-83